Time;durP1;ratioP1;P1;durP2;ratioP2;P2;SDS_P1;SDS_P2;PMS_P1;PMS_P2;Temp;Humidity;BMP_temperature;BMP_pressure;BME280_temperature;BME280_humidity;BME280_pressure;Samples;Min_cycle;Max_cycle;Signal;HPM_P1;HPM_P2
2023/07/20 00:01:04;;;;;;;3.38;1.40;;;13.80;99.90;;;;;;5125891;27;20031;-50
2023/07/20 00:03:30;;;;;;;2.58;1.60;;;15.80;99.90;;;;;;5126833;27;20051;-54
2023/07/20 00:05:55;;;;;;;2.78;1.27;;;16.50;99.90;;;;;;5133326;27;20019;-47
2023/07/20 00:08:21;;;;;;;3.67;1.10;;;15.00;99.90;;;;;;5133633;27;20468;-49
2023/07/20 00:10:47;;;;;;;2.65;1.20;;;13.90;99.90;;;;;;5133380;27;20019;-51
2023/07/20 00:13:13;;;;;;;2.05;0.98;;;13.80;99.90;;;;;;5133368;27;20011;-48
2023/07/20 00:15:38;;;;;;;2.67;1.13;;;14.90;99.90;;;;;;5119031;27;20024;-52
2023/07/20 00:18:05;;;;;;;1.73;0.93;;;16.00;99.90;;;;;;5133496;27;20324;-50
2023/07/20 00:20:31;;;;;;;3.95;1.02;;;16.80;99.90;;;;;;5133254;27;20076;-49
2023/07/20 00:22:57;;;;;;;1.65;1.00;;;17.10;99.90;;;;;;5131533;27;20054;-48
2023/07/20 00:25:24;;;;;;;2.90;1.25;;;;;;;;;;5131910;27;20029;-47
2023/07/20 00:27:50;;;;;;;2.00;1.20;;;;;;;;;;5133063;27;20111;-57
2023/07/20 00:30:16;;;;;;;3.00;1.35;;;13.80;99.90;;;;;;5133312;27;20464;-51
2023/07/20 00:32:45;;;;;;;4.45;1.20;;;13.40;99.90;;;;;;5133208;27;20844;-54
2023/07/20 00:35:11;;;;;;;4.63;1.35;;;16.80;99.90;;;;;;5133306;27;20062;-53
2023/07/20 00:37:37;;;;;;;5.15;1.40;;;;;;;;;;5134024;27;20027;-56
2023/07/20 00:40:04;;;;;;;4.63;1.60;;;15.00;99.90;;;;;;5132574;27;20050;-51
2023/07/20 00:42:30;;;;;;;3.33;1.38;;;12.90;99.90;;;;;;5132559;27;20035;-55
2023/07/20 00:44:55;;;;;;;2.65;1.48;;;18.00;99.90;;;;;;5132629;27;20019;-53
2023/07/20 00:47:21;;;;;;;2.72;1.42;;;13.20;99.90;;;;;;5132595;27;20182;-46
2023/07/20 00:49:47;;;;;;;3.10;1.52;;;13.00;99.90;;;;;;5132689;27;20423;-51
2023/07/20 00:52:14;;;;;;;4.10;1.80;;;15.60;99.90;;;;;;5132605;27;20019;-47
2023/07/20 00:54:41;;;;;;;3.78;1.48;;;15.20;99.90;;;;;;5132484;27;20030;-51
2023/07/20 00:57:08;;;;;;;3.97;1.58;;;15.20;99.90;;;;;;5132119;27;20054;-50
2023/07/20 00:59:35;;;;;;;8.32;1.85;;;14.60;99.90;;;;;;5124828;27;20118;-50
2023/07/20 01:02:01;;;;;;;3.03;1.50;;;12.80;99.90;;;;;;5132430;27;20034;-47
2023/07/20 01:04:28;;;;;;;3.83;1.67;;;13.50;99.90;;;;;;5132558;27;20532;-47
2023/07/20 01:07:08;;;;;;;4.85;1.77;;;15.00;99.90;;;;;;5132551;27;20016;-44
2023/07/20 01:09:58;;;;;;;4.40;1.50;;;15.00;99.90;;;;;;5132370;27;20437;-49
2023/07/20 01:12:32;;;;;;;4.18;1.42;;;13.70;99.90;;;;;;5132245;27;20403;-51
2023/07/20 01:14:58;;;;;;;4.55;1.58;;;;;;;;;;5132333;27;20094;-47
2023/07/20 01:17:24;;;;;;;2.60;1.38;;;;;;;;;;5132134;27;20106;-51
2023/07/20 01:19:50;;;;;;;3.20;1.60;;;15.20;99.90;;;;;;5132146;27;20502;-49
2023/07/20 01:22:53;;;;;;;2.85;1.38;;;16.30;99.90;;;;;;5132253;27;20030;-53
2023/07/20 01:25:22;;;;;;;3.15;1.20;;;16.00;99.90;;;;;;5131898;27;20103;-48
2023/07/20 01:28:21;;;;;;;1.98;1.05;;;15.00;99.90;;;;;;5131936;27;20076;-54
2023/07/20 01:31:03;;;;;;;;;;;14.80;99.90;;;;;;5132445;27;20034;-45
2023/07/20 01:33:33;;;;;;;3.58;1.70;;;14.80;99.90;;;;;;5131696;27;19903;-49
2023/07/20 01:36:00;;;;;;;3.63;1.40;;;14.90;99.90;;;;;;5131399;27;20031;-52
2023/07/20 01:38:26;;;;;;;2.72;1.48;;;12.00;99.90;;;;;;5131866;27;20101;-49
2023/07/20 01:40:52;;;;;;;5.22;1.52;;;15.70;99.90;;;;;;5131945;27;20163;-50
2023/07/20 01:43:18;;;;;;;2.38;1.05;;;14.90;99.90;;;;;;5131934;27;20031;-48
2023/07/20 01:45:44;;;;;;;5.00;1.50;;;12.20;99.90;;;;;;5131978;27;20027;-50
2023/07/20 01:48:10;;;;;;;2.67;1.35;;;12.70;99.90;;;;;;5131577;27;20023;-47
2023/07/20 01:50:36;;;;;;;4.78;1.48;;;15.20;99.90;;;;;;5131800;27;20064;-49
2023/07/20 01:53:02;;;;;;;1.55;0.93;;;15.30;99.90;;;;;;5131414;27;20070;-50
2023/07/20 01:55:28;;;;;;;2.22;1.30;;;16.80;99.90;;;;;;5131358;27;20072;-54
2023/07/20 01:57:54;;;;;;;2.38;1.20;;;15.20;99.90;;;;;;5131633;27;20131;-48
2023/07/20 02:00:23;;;;;;;3.33;1.30;;;16.40;99.90;;;;;;5131446;27;20085;-50
2023/07/20 02:02:49;;;;;;;1.98;1.17;;;15.20;99.90;;;;;;5131538;27;20044;-52
2023/07/20 02:05:15;;;;;;;1.88;1.10;;;15.60;99.90;;;;;;5128504;27;20027;-51
2023/07/20 02:07:41;;;;;;;3.08;1.48;;;;;;;;;;5134581;27;20019;-47
2023/07/20 02:10:06;;;;;;;2.45;1.10;;;11.70;99.90;;;;;;5139983;27;20046;-47
2023/07/20 02:12:32;;;;;;;1.40;0.90;;;11.90;99.90;;;;;;5144366;27;20152;-47
2023/07/20 02:14:58;;;;;;;1.88;1.00;;;14.90;99.90;;;;;;5145043;27;20026;-53
2023/07/20 02:17:24;;;;;;;2.83;1.20;;;;;;;;;;5151817;27;20051;-50
2023/07/20 02:19:57;;;;;;;1.77;1.10;;;13.30;99.90;;;;;;5152010;27;20052;-52
2023/07/20 02:22:23;;;;;;;3.35;1.27;;;14.90;99.90;;;;;;5137224;27;20045;-49
2023/07/20 02:24:50;;;;;;;3.08;1.27;;;14.30;99.90;;;;;;5151916;27;20490;-48
2023/07/20 02:27:16;;;;;;;4.88;1.60;;;12.20;99.90;;;;;;5151865;27;20084;-52
2023/07/20 02:29:42;;;;;;;2.25;1.00;;;;;;;;;;5152023;27;20026;-54
2023/07/20 02:32:09;;;;;;;2.53;1.17;;;14.60;99.90;;;;;;5151800;27;20103;-46
2023/07/20 02:34:35;;;;;;;2.45;1.08;;;15.70;99.90;;;;;;5150605;27;20030;-54
2023/07/20 02:37:01;;;;;;;1.98;1.08;;;17.10;99.90;;;;;;5151943;27;20019;-54
2023/07/20 02:39:28;;;;;;;1.48;0.80;;;11.90;99.90;;;;;;5137188;27;20027;-46
2023/07/20 02:41:54;;;;;;;1.90;1.02;;;;;;;;;;5151653;27;20038;-54
2023/07/20 02:44:20;;;;;;;2.97;1.10;;;15.70;99.90;;;;;;5151695;27;20029;-53
2023/07/20 02:46:46;;;;;;;2.35;1.10;;;;;;;;;;5154895;27;20022;-57
2023/07/20 02:49:11;;;;;;;1.65;1.15;;;12.30;99.90;;;;;;5155659;27;20482;-57
2023/07/20 02:51:37;;;;;;;2.47;0.90;;;16.70;99.90;;;;;;5156086;27;20069;-48
2023/07/20 02:54:03;;;;;;;1.50;1.02;;;13.90;99.90;;;;;;5155441;27;20390;-48
2023/07/20 02:56:29;;;;;;;2.28;1.15;;;;;;;;;;5155443;27;20084;-51
2023/07/20 02:58:55;;;;;;;1.85;0.90;;;15.00;99.90;;;;;;5155597;27;20045;-50
2023/07/20 03:01:20;;;;;;;3.13;1.20;;;15.00;99.90;;;;;;5154590;27;20420;-49
2023/07/20 03:03:46;;;;;;;2.22;1.15;;;15.30;99.90;;;;;;5131160;27;20068;-50
2023/07/20 03:06:14;;;;;;;2.15;1.08;;;15.10;99.90;;;;;;5155124;27;20023;-51
2023/07/20 03:08:41;;;;;;;1.67;0.85;;;;;;;;;;5155507;27;20025;-56
2023/07/20 03:11:07;;;;;;;3.80;1.23;;;;;;;;;;5155311;27;20071;-55
2023/07/20 03:13:33;;;;;;;2.40;1.13;;;;;;;;;;5140403;27;20075;-46
2023/07/20 03:15:58;;;;;;;2.88;0.95;;;14.90;99.90;;;;;;5155307;27;20023;-48
2023/07/20 03:18:24;;;;;;;2.85;1.00;;;;;;;;;;5154974;27;20025;-47
2023/07/20 03:20:50;;;;;;;2.50;1.17;;;15.30;99.90;;;;;;5155054;27;20456;-45
2023/07/20 03:23:16;;;;;;;2.08;1.10;;;15.50;99.90;;;;;;5155135;27;20023;-47
2023/07/20 03:25:42;;;;;;;1.73;0.90;;;15.30;99.90;;;;;;5155074;27;20022;-52
2023/07/20 03:28:07;;;;;;;4.05;1.35;;;16.10;99.90;;;;;;5155180;27;20026;-53
2023/07/20 03:30:34;;;;;;;1.35;1.00;;;16.60;99.90;;;;;;5154879;27;20026;-53
2023/07/20 03:33:00;;;;;;;1.80;0.82;;;11.20;99.90;;;;;;5154992;27;20126;-50
2023/07/20 03:35:26;;;;;;;0.98;0.85;;;14.90;99.90;;;;;;5155091;27;20060;-47
2023/07/20 03:37:52;;;;;;;1.98;1.00;;;;;;;;;;5154879;27;20479;-52
2023/07/20 03:40:17;;;;;;;2.05;1.00;;;12.00;99.90;;;;;;5154966;27;20030;-52
2023/07/20 03:42:43;;;;;;;1.75;1.00;;;14.40;99.90;;;;;;5153214;27;20023;-48
2023/07/20 03:45:09;;;;;;;2.17;1.27;;;16.20;99.90;;;;;;5153454;27;20395;-50
2023/07/20 03:47:34;;;;;;;1.55;0.85;;;16.20;99.90;;;;;;5154455;27;20479;-54
2023/07/20 03:50:00;;;;;;;1.77;0.98;;;;;;;;;;5154606;27;20019;-50
2023/07/20 03:52:26;;;;;;;2.78;1.13;;;;;;;;;;5154335;27;20080;-47
2023/07/20 03:54:52;;;;;;;3.38;1.17;;;;;;;;;;5155007;27;20030;-46
2023/07/20 03:57:18;;;;;;;2.20;1.40;;;;;;;;;;5153513;27;20174;-52
2023/07/20 03:59:48;;;;;;;2.95;1.38;;;15.10;99.90;;;;;;5154430;27;20502;-52
2023/07/20 04:02:14;;;;;;;2.65;1.50;;;;;;;;;;5154404;27;20035;-47
2023/07/20 04:04:40;;;;;;;3.15;1.38;;;12.70;99.90;;;;;;5154253;27;20059;-48
2023/07/20 04:07:05;;;;;;;2.15;1.40;;;15.30;99.90;;;;;;5154344;27;20080;-49
2023/07/20 04:09:32;;;;;;;2.20;1.30;;;16.50;99.90;;;;;;5154126;27;20018;-56
2023/07/20 04:11:57;;;;;;;2.22;1.30;;;13.20;99.90;;;;;;5149287;27;20027;-55
2023/07/20 04:14:23;;;;;;;2.97;1.40;;;15.30;99.90;;;;;;5144400;27;20023;-51
2023/07/20 04:16:48;;;;;;;1.67;1.17;;;16.60;99.90;;;;;;5153939;27;20079;-53
2023/07/20 04:19:14;;;;;;;3.10;1.27;;;15.60;99.90;;;;;;5154064;27;20015;-49
2023/07/20 04:21:43;;;;;;;1.85;1.17;;;15.70;99.90;;;;;;5153886;27;20472;-55
2023/07/20 04:24:08;;;;;;;2.50;1.30;;;15.20;99.90;;;;;;5153985;27;20542;-53
2023/07/20 04:26:35;;;;;;;1.92;1.02;;;;;;;;;;5153907;27;20133;-50
2023/07/20 04:29:01;;;;;;;3.03;0.98;;;14.40;99.90;;;;;;5153653;27;20486;-51
2023/07/20 04:31:26;;;;;;;2.65;1.15;;;11.80;99.90;;;;;;5153738;27;20037;-49
2023/07/20 04:33:52;;;;;;;2.33;1.23;;;15.20;99.90;;;;;;5153706;27;20026;-46
2023/07/20 04:36:19;;;;;;;1.52;0.98;;;15.80;99.90;;;;;;5153703;27;20026;-48
2023/07/20 04:38:47;;;;;;;1.95;1.30;;;16.30;99.90;;;;;;5153781;27;20506;-54
2023/07/20 04:41:13;;;;;;;2.10;1.13;;;12.50;99.90;;;;;;5153675;27;20037;-55
2023/07/20 04:43:45;;;;;;;2.42;1.30;;;12.80;99.90;;;;;;5153618;27;20023;-53
2023/07/20 04:46:11;;;;;;;3.05;1.02;;;15.40;99.90;;;;;;5153426;27;20068;-46
2023/07/20 04:48:37;;;;;;;2.28;1.25;;;14.90;99.90;;;;;;5153511;27;20018;-51
2023/07/20 04:51:03;;;;;;;2.17;1.23;;;;;;;;;;5153303;27;20093;-48
2023/07/20 04:53:29;;;;;;;2.13;1.13;;;13.80;99.90;;;;;;5153431;27;20106;-52
2023/07/20 04:55:54;;;;;;;4.03;1.25;;;15.30;99.90;;;;;;5152955;27;20086;-46
2023/07/20 04:58:21;;;;;;;1.90;1.17;;;15.60;99.90;;;;;;5153195;27;20059;-52
2023/07/20 05:00:51;;;;;;;1.85;1.10;;;14.20;99.90;;;;;;5153061;27;20022;-56
2023/07/20 05:03:17;;;;;;;1.88;1.00;;;;;;;;;;5153471;27;20083;-51
2023/07/20 05:05:43;;;;;;;3.03;1.20;;;;;;;;;;5153318;27;20490;-46
2023/07/20 05:08:09;;;;;;;1.25;0.90;;;15.80;99.90;;;;;;5152939;27;20022;-51
2023/07/20 05:10:34;;;;;;;2.38;1.20;;;16.70;99.90;;;;;;5153266;27;20029;-49
2023/07/20 05:13:00;;;;;;;2.85;1.40;;;15.90;99.90;;;;;;5139218;27;20384;-52
2023/07/20 05:15:25;;;;;;;2.13;1.27;;;13.00;99.90;;;;;;5152246;27;20031;-49
2023/07/20 05:17:51;;;;;;;3.97;1.10;;;14.10;99.90;;;;;;5141092;27;20140;-47
2023/07/20 05:20:17;;;;;;;2.47;1.15;;;12.60;99.90;;;;;;5132021;27;20045;-46
2023/07/20 05:22:43;;;;;;;1.80;1.10;;;15.70;99.90;;;;;;5132106;27;20023;-50
2023/07/20 05:25:10;;;;;;;3.40;1.23;;;14.40;99.90;;;;;;5131887;27;20019;-49
2023/07/20 05:27:39;;;;;;;1.90;1.00;;;14.80;99.90;;;;;;5132021;27;20392;-48
2023/07/20 05:30:07;;;;;;;2.10;1.10;;;12.50;99.90;;;;;;5131917;27;20011;-50
2023/07/20 05:32:33;;;;;;;2.20;1.10;;;15.10;99.90;;;;;;5132009;27;20551;-53
2023/07/20 05:34:58;;;;;;;2.47;1.40;;;14.60;99.90;;;;;;5136765;27;20026;-47
2023/07/20 05:37:24;;;;;;;3.90;1.25;;;14.70;99.90;;;;;;5138681;27;20225;-49
2023/07/20 05:39:50;;;;;;;2.75;1.27;;;14.70;99.90;;;;;;5139443;27;20045;-49
2023/07/20 05:42:16;;;;;;;2.80;1.13;;;14.80;99.90;;;;;;5137800;27;20031;-46
2023/07/20 05:44:41;;;;;;;1.98;1.10;;;15.00;99.90;;;;;;5135221;27;20020;-50
2023/07/20 05:47:07;;;;;;;2.55;1.25;;;15.00;99.90;;;;;;5140959;27;20026;-45
2023/07/20 05:49:34;;;;;;;4.38;1.30;;;15.10;99.90;;;;;;5131900;27;20027;-49
2023/07/20 05:52:00;;;;;;;3.47;1.33;;;15.30;99.90;;;;;;5131754;27;20094;-51
2023/07/20 05:54:26;;;;;;;3.15;1.60;;;15.50;99.90;;;;;;5131569;27;20570;-46
2023/07/20 05:56:52;;;;;;;2.10;1.10;;;15.60;99.90;;;;;;5131427;27;20644;-54
2023/07/20 05:59:19;;;;;;;1.65;1.08;;;15.80;99.90;;;;;;5131797;27;20027;-52
2023/07/20 06:01:46;;;;;;;3.10;1.17;;;16.10;99.90;;;;;;5131342;27;20035;-46
2023/07/20 06:04:12;;;;;;;1.67;1.00;;;16.60;99.90;;;;;;5131413;27;20015;-47
2023/07/20 06:06:38;;;;;;;2.05;1.20;;;17.10;99.90;;;;;;5131581;27;20380;-51
2023/07/20 06:09:04;;;;;;;1.50;0.88;;;17.70;99.90;;;;;;5130120;27;20039;-52
2023/07/20 06:11:30;;;;;;;1.50;0.90;;;19.30;99.90;;;;;;5131350;27;20123;-49
2023/07/20 06:13:56;;;;;;;2.17;1.40;;;18.90;99.90;;;;;;5138654;27;20022;-48
2023/07/20 06:16:22;;;;;;;2.08;1.30;;;19.60;99.90;;;;;;5152305;27;20029;-56
2023/07/20 06:18:48;;;;;;;2.60;1.20;;;20.10;99.90;;;;;;5152025;27;20031;-49
2023/07/20 06:21:13;;;;;;;1.50;0.90;;;20.60;99.90;;;;;;5154182;27;20023;-47
2023/07/20 06:23:39;;;;;;;2.10;1.00;;;21.10;99.90;;;;;;5156296;27;20019;-46
2023/07/20 06:26:07;;;;;;;1.85;0.90;;;21.90;99.90;;;;;;5156369;27;20559;-48
2023/07/20 06:28:33;;;;;;;2.22;0.90;;;21.90;99.90;;;;;;5156182;27;20642;-54
2023/07/20 06:31:02;;;;;;;5.32;1.20;;;22.40;99.90;;;;;;5156390;27;20030;-48
2023/07/20 06:33:28;;;;;;;3.70;1.00;;;23.10;99.90;;;;;;5156322;27;20027;-49
2023/07/20 06:35:54;;;;;;;1.83;0.95;;;23.20;99.90;;;;;;5155987;27;20023;-50
2023/07/20 06:38:20;;;;;;;0.73;0.60;;;23.80;99.90;;;;;;5156170;27;20031;-48
2023/07/20 06:40:48;;;;;;;1.75;0.90;;;24.30;99.90;;;;;;5156056;27;20034;-48
2023/07/20 06:43:14;;;;;;;1.10;0.80;;;24.50;99.90;;;;;;5156090;27;20486;-48
2023/07/20 06:45:41;;;;;;;1.20;0.60;;;24.90;99.90;;;;;;5156163;27;20129;-51
2023/07/20 06:48:07;;;;;;;1.83;1.02;;;25.10;99.90;;;;;;5156115;27;20037;-49
2023/07/20 06:50:33;;;;;;;2.80;1.75;;;25.60;99.90;;;;;;5155749;27;20623;-51
2023/07/20 06:52:59;;;;;;;1.27;0.80;;;26.10;99.90;;;;;;5141609;27;20029;-49
2023/07/20 06:55:25;;;;;;;1.15;0.90;;;23.90;99.90;;;;;;5155617;27;20400;-49
2023/07/20 06:57:51;;;;;;;0.73;0.52;;;26.40;99.90;;;;;;5155769;27;20719;-49
2023/07/20 07:00:17;;;;;;;1.60;0.90;;;26.40;99.90;;;;;;5155807;27;20018;-56
2023/07/20 07:02:43;;;;;;;1.50;0.80;;;26.50;99.90;;;;;;5155590;27;20037;-46
2023/07/20 07:05:09;;;;;;;1.85;1.05;;;26.60;99.90;;;;;;5155637;27;20023;-49
2023/07/20 07:07:35;;;;;;;1.30;0.85;;;26.90;99.90;;;;;;5155440;27;20061;-46
2023/07/20 07:10:04;;;;;;;2.35;0.65;;;27.30;99.90;;;;;;5155785;27;20067;-51
2023/07/20 07:12:30;;;;;;;1.02;0.70;;;27.40;99.90;;;;;;5146059;27;20038;-47
2023/07/20 07:14:55;;;;;;;0.98;0.63;;;27.70;99.90;;;;;;5150161;27;20019;-44
2023/07/20 07:17:21;;;;;;;1.27;1.00;;;27.80;99.90;;;;;;5155188;27;20080;-48
2023/07/20 07:19:47;;;;;;;1.40;0.85;;;27.90;99.90;;;;;;5155206;27;20027;-53
2023/07/20 07:22:13;;;;;;;5.25;0.80;;;27.90;99.90;;;;;;5154980;27;20424;-47
2023/07/20 07:24:41;;;;;;;1.73;1.08;;;28.10;99.80;;;;;;5155464;27;20023;-50
2023/07/20 07:27:08;;;;;;;3.28;1.20;;;28.30;97.30;;;;;;5154988;27;20029;-52
2023/07/20 07:29:33;;;;;;;1.00;0.77;;;28.50;98.00;;;;;;5153911;27;20045;-49
2023/07/20 07:31:59;;;;;;;0.95;0.73;;;28.70;98.60;;;;;;5153429;27;20499;-49
2023/07/20 07:34:25;;;;;;;1.30;0.82;;;28.80;98.40;;;;;;5155022;27;20037;-52
2023/07/20 07:36:51;;;;;;;1.23;0.88;;;28.80;97.20;;;;;;5154913;27;20035;-46
2023/07/20 07:39:16;;;;;;;3.08;1.00;;;29.00;97.10;;;;;;5155105;27;20018;-53
2023/07/20 07:41:42;;;;;;;1.52;0.73;;;29.00;97.30;;;;;;5154773;27;20070;-51
2023/07/20 07:44:07;;;;;;;1.10;0.80;;;29.00;96.80;;;;;;5154707;27;20034;-53
2023/07/20 07:46:33;;;;;;;1.00;0.70;;;29.10;95.30;;;;;;5154734;27;20478;-53
2023/07/20 07:48:59;;;;;;;1.45;0.82;;;29.10;95.10;;;;;;5154753;27;20026;-54
2023/07/20 07:51:27;;;;;;;0.80;0.70;;;28.80;96.00;;;;;;5154561;27;20030;-52
2023/07/20 07:53:52;;;;;;;1.50;0.50;;;29.80;94.10;;;;;;5155006;27;20027;-53
2023/07/20 07:56:22;;;;;;;0.60;0.50;;;29.10;94.00;;;;;;5153367;27;20047;-46
2023/07/20 07:58:53;;;;;;;0.65;0.60;;;29.00;95.70;;;;;;5154652;27;20023;-51
2023/07/20 08:01:19;;;;;;;0.70;0.60;;;29.20;93.80;;;;;;5154582;27;20027;-53
2023/07/20 08:03:47;;;;;;;0.80;0.60;;;29.00;94.80;;;;;;5154466;27;20386;-50
2023/07/20 08:06:16;;;;;;;2.47;0.90;;;28.20;94.90;;;;;;5154661;27;20079;-57
2023/07/20 08:08:42;;;;;;;1.17;0.80;;;28.10;95.00;;;;;;5154526;27;20030;-51
2023/07/20 08:11:08;;;;;;;2.42;1.60;;;27.60;96.40;;;;;;5154265;27;20050;-57
2023/07/20 08:13:34;;;;;;;3.33;0.80;;;26.30;96.70;;;;;;5135578;27;20467;-49
2023/07/20 08:16:02;;;;;;;6.63;0.80;;;26.40;98.20;;;;;;5131374;27;20099;-50
2023/07/20 08:18:28;;;;;;;0.70;0.50;;;26.80;97.20;;;;;;5128545;27;20497;-47
2023/07/20 08:20:53;;;;;;;1.00;0.60;;;28.70;96.70;;;;;;5133180;27;20164;-53
2023/07/20 08:23:19;;;;;;;1.67;0.82;;;27.90;96.40;;;;;;5133095;27;20383;-52
2023/07/20 08:25:45;;;;;;;1.48;0.60;;;28.50;95.00;;;;;;5133446;27;20019;-57
2023/07/20 08:28:13;;;;;;;1.17;0.60;;;28.90;94.20;;;;;;5133157;27;20096;-54
2023/07/20 08:30:44;;;;;;;0.95;0.70;;;28.90;94.50;;;;;;5133311;27;20064;-50
2023/07/20 08:33:12;;;;;;;1.10;0.70;;;28.60;94.10;;;;;;5132875;27;20122;-48
2023/07/20 08:35:38;;;;;;;1.30;0.73;;;27.80;94.40;;;;;;5145879;27;20068;-50
2023/07/20 08:38:04;;;;;;;1.67;0.60;;;27.80;95.30;;;;;;5133038;27;20023;-50
2023/07/20 08:40:31;;;;;;;0.80;0.60;;;28.40;93.60;;;;;;5132935;27;20031;-48
2023/07/20 08:43:00;;;;;;;1.52;0.82;;;27.60;93.80;;;;;;5131624;27;20054;-50
2023/07/20 08:45:30;;;;;;;1.10;0.85;;;28.50;95.20;;;;;;5132758;27;20102;-51
2023/07/20 08:47:58;;;;;;;1.23;0.70;;;29.20;93.70;;;;;;5132958;27;20028;-47
2023/07/20 08:50:30;;;;;;;1.20;0.57;;;29.20;94.10;;;;;;5132963;27;20140;-51
2023/07/20 08:52:57;;;;;;;1.20;0.65;;;29.10;92.50;;;;;;5132597;27;20068;-47
2023/07/20 08:55:24;;;;;;;1.00;0.60;;;28.70;91.80;;;;;;5132390;27;20384;-48
2023/07/20 08:57:57;;;;;;;0.57;0.47;;;29.40;91.70;;;;;;5135547;27;20029;-51
2023/07/20 09:00:24;;;;;;;0.70;0.60;;;29.70;91.40;;;;;;5141503;27;20024;-45
2023/07/20 09:02:51;;;;;;;0.90;0.70;;;29.90;91.50;;;;;;5132895;27;20025;-46
2023/07/20 09:05:20;;;;;;;4.43;0.75;;;31.40;92.00;;;;;;5143138;27;20429;-48
2023/07/20 09:07:46;;;;;;;1.23;0.60;;;29.80;89.50;;;;;;5132184;27;20031;-47
2023/07/20 09:10:12;;;;;;;0.75;0.60;;;30.90;88.60;;;;;;5132210;27;20479;-47
2023/07/20 09:12:39;;;;;;;1.23;0.90;;;31.10;88.80;;;;;;5133991;27;20026;-48
2023/07/20 09:15:06;;;;;;;0.50;0.50;;;29.80;84.00;;;;;;5134594;27;20037;-46
2023/07/20 09:17:31;;;;;;;1.38;0.73;;;29.90;85.50;;;;;;5134750;27;20038;-46
2023/07/20 09:19:57;;;;;;;0.70;0.60;;;28.80;86.30;;;;;;5135050;27;20015;-57
2023/07/20 09:22:30;;;;;;;3.03;0.70;;;28.00;89.70;;;;;;5132078;27;20039;-53
2023/07/20 09:24:56;;;;;;;1.25;0.68;;;27.10;91.70;;;;;;5131832;27;20038;-53
2023/07/20 09:27:22;;;;;;;0.93;0.73;;;24.40;93.60;;;;;;5132172;27;20110;-51
2023/07/20 09:29:51;;;;;;;1.05;0.70;;;24.10;94.10;;;;;;5131829;27;20102;-50
2023/07/20 09:32:21;;;;;;;1.08;0.70;;;25.00;94.20;;;;;;5131905;27;20023;-49
2023/07/20 09:34:49;;;;;;;2.17;0.80;;;24.50;95.60;;;;;;5132063;27;20106;-49
2023/07/20 09:37:23;;;;;;;1.42;0.60;;;25.50;97.70;;;;;;5131695;27;20019;-45
2023/07/20 09:39:51;;;;;;;0.85;0.68;;;25.00;96.30;;;;;;5136640;27;20026;-51
2023/07/20 09:42:18;;;;;;;1.02;0.70;;;27.00;95.40;;;;;;5145584;27;20035;-45
2023/07/20 09:44:44;;;;;;;0.95;0.75;;;28.60;95.00;;;;;;5131421;27;20106;-57
2023/07/20 09:47:10;;;;;;;1.25;0.70;;;30.60;92.30;;;;;;5130375;27;20102;-53
2023/07/20 09:49:42;;;;;;;2.67;0.60;;;29.00;92.30;;;;;;5129833;27;20494;-45
2023/07/20 09:52:11;;;;;;;3.22;0.68;;;28.80;88.10;;;;;;5129621;27;20027;-51
2023/07/20 09:54:40;;;;;;;0.63;0.50;;;30.30;89.20;;;;;;5129178;27;20019;-46
2023/07/20 09:57:12;;;;;;;1.40;0.70;;;29.80;89.10;;;;;;5129050;27;20039;-47
2023/07/20 09:59:38;;;;;;;1.48;0.80;;;25.80;89.30;;;;;;5129586;27;20025;-46
2023/07/20 10:02:20;;;;;;;1.13;0.70;;;28.30;88.50;;;;;;5130609;27;20450;-47
2023/07/20 10:04:46;;;;;;;0.85;0.60;;;;;;;;;;5131307;27;20027;-46
2023/07/20 10:07:13;;;;;;;0.85;0.60;;;28.40;87.10;;;;;;5131708;27;20023;-49
2023/07/20 10:09:41;;;;;;;1.30;0.50;;;28.80;88.70;;;;;;5131302;27;20471;-45
2023/07/20 10:12:08;;;;;;;1.13;0.70;;;29.50;85.50;;;;;;5131372;27;20023;-46
2023/07/20 10:14:40;;;;;;;1.15;0.70;;;30.20;88.20;;;;;;5142632;27;20068;-50
2023/07/20 10:17:11;;;;;;;1.10;0.60;;;30.80;85.00;;;;;;5144064;27;20019;-48
2023/07/20 10:19:46;;;;;;;0.50;0.50;;;31.50;84.10;;;;;;5131370;27;20023;-49
2023/07/20 10:22:22;;;;;;;0.75;0.52;;;29.30;81.10;;;;;;5142042;27;20035;-47
2023/07/20 10:24:49;;;;;;;1.02;0.60;;;29.10;82.00;;;;;;5131646;27;20026;-48
2023/07/20 10:27:15;;;;;;;0.75;0.63;;;28.30;83.20;;;;;;5144790;27;20034;-51
2023/07/20 10:29:41;;;;;;;1.55;0.70;;;25.50;86.10;;;;;;5146422;27;20023;-50
2023/07/20 10:32:09;;;;;;;2.35;0.80;;;27.10;90.10;;;;;;5145000;27;20049;-46
2023/07/20 10:34:35;;;;;;;1.13;0.63;;;23.80;85.70;;;;;;5148363;27;20031;-49
2023/07/20 10:37:00;;;;;;;3.47;0.70;;;26.40;92.10;;;;;;5148917;27;20106;-48
2023/07/20 10:39:32;;;;;;;0.80;0.60;;;27.10;90.50;;;;;;5131201;27;20027;-47
2023/07/20 10:42:02;;;;;;;0.82;0.60;;;27.20;90.80;;;;;;5131108;27;20031;-50
2023/07/20 10:44:27;;;;;;;1.38;0.77;;;28.00;88.80;;;;;;5133189;27;20020;-48
2023/07/20 10:47:05;;;;;;;1.27;0.70;;;27.90;89.40;;;;;;5147729;27;20026;-51
2023/07/20 10:49:33;;;;;;;1.00;0.63;;;28.90;84.50;;;;;;5133930;27;20023;-45
2023/07/20 10:52:04;;;;;;;1.27;0.70;;;29.90;84.00;;;;;;5136886;27;20051;-47
2023/07/20 10:54:33;;;;;;;0.50;0.50;;;29.90;85.70;;;;;;5132046;27;20027;-45
2023/07/20 10:57:28;;;;;;;0.75;0.52;;;30.00;84.30;;;;;;5136051;27;20526;-47
2023/07/20 11:00:11;;;;;;;1.75;0.75;;;30.50;84.40;;;;;;5130965;27;20027;-50
2023/07/20 11:03:02;;;;;;;0.85;0.60;;;30.80;80.40;;;;;;5127660;27;20053;-50
2023/07/20 11:05:35;;;;;;;1.05;0.80;;;30.90;78.40;;;;;;5121272;27;20549;-51
2023/07/20 11:08:04;;;;;;;0.80;0.55;;;30.80;77.40;;;;;;5132454;27;20031;-48
2023/07/20 11:10:29;;;;;;;;;;;30.80;72.80;;;;;;5135148;27;20468;-53
2023/07/20 11:13:22;;;;;;;0.98;0.60;;;30.70;69.50;;;;;;5134587;27;19910;-50
2023/07/20 11:15:58;;;;;;;0.65;0.45;;;30.60;75.60;;;;;;5131024;27;20413;-48
2023/07/20 11:18:27;;;;;;;1.85;0.85;;;30.80;80.60;;;;;;5155336;27;20099;-49
2023/07/20 11:20:53;;;;;;;0.85;0.65;;;30.80;75.20;;;;;;5155445;27;20062;-48
2023/07/20 11:23:22;;;;;;;1.30;0.52;;;30.80;75.80;;;;;;5155141;27;20543;-45
2023/07/20 11:25:49;;;;;;;0.73;0.50;;;30.60;74.90;;;;;;5155279;27;20023;-45
2023/07/20 11:28:15;;;;;;;0.93;0.60;;;30.00;75.20;;;;;;5155218;27;20026;-48
2023/07/20 11:30:41;;;;;;;1.20;0.60;;;29.20;74.50;;;;;;5155068;27;20037;-45
2023/07/20 11:33:10;;;;;;;2.83;0.60;;;28.40;79.00;;;;;;5143540;27;20039;-47
2023/07/20 11:35:50;;;;;;;2.97;0.90;;;27.80;77.90;;;;;;5133944;27;20019;-45
2023/07/20 11:38:16;;;;;;;1.05;0.57;;;27.30;77.10;;;;;;5134237;27;20035;-45
2023/07/20 11:40:45;;;;;;;0.80;0.60;;;27.10;83.50;;;;;;5134232;27;20102;-46
2023/07/20 11:43:14;;;;;;;1.00;0.73;;;26.80;79.60;;;;;;5134428;27;20159;-44
2023/07/20 11:45:40;;;;;;;2.00;0.85;;;27.10;82.20;;;;;;5134079;27;20015;-49
2023/07/20 11:48:05;;;;;;;1.27;0.70;;;27.80;78.90;;;;;;5133930;27;20399;-46
2023/07/20 11:50:32;;;;;;;1.05;0.75;;;25.20;81.50;;;;;;5133774;27;20094;-46
2023/07/20 11:52:58;;;;;;;0.55;0.50;;;25.90;81.00;;;;;;5132559;27;20016;-48
2023/07/20 11:55:23;;;;;;;0.70;0.70;;;25.90;83.60;;;;;;5133650;27;20060;-49
2023/07/20 11:58:06;;;;;;;0.98;0.70;;;26.50;86.50;;;;;;5133982;27;20114;-49
2023/07/20 12:00:33;;;;;;;1.33;0.60;;;24.70;86.30;;;;;;5133781;27;20391;-51
2023/07/20 12:02:59;;;;;;;2.08;1.00;;;24.90;84.30;;;;;;5131279;27;20091;-54
2023/07/20 12:05:26;;;;;;;1.27;0.70;;;26.50;85.50;;;;;;5133635;27;20479;-51
2023/07/20 12:07:52;;;;;;;1.02;0.60;;;25.10;87.70;;;;;;5133602;27;20023;-53
2023/07/20 12:10:27;;;;;;;1.52;0.70;;;26.40;84.50;;;;;;5133282;27;20094;-48
2023/07/20 12:12:53;;;;;;;3.53;0.80;;;28.60;85.40;;;;;;5133638;27;20031;-48
2023/07/20 12:15:26;;;;;;;0.95;0.50;;;25.50;80.20;;;;;;5152206;27;20352;-53
2023/07/20 12:17:53;;;;;;;1.20;0.80;;;28.00;81.20;;;;;;5153744;27;20031;-51
2023/07/20 12:20:45;;;;;;;2.00;0.50;;;27.60;77.40;;;;;;5153915;27;20015;-49
2023/07/20 12:23:12;;;;;;;0.85;0.65;;;28.30;83.80;;;;;;5149868;27;20038;-51
2023/07/20 12:25:40;;;;;;;0.75;0.50;;;26.20;81.70;;;;;;5152822;27;20023;-45
2023/07/20 12:28:16;;;;;;;0.95;0.70;;;25.70;81.60;;;;;;5154190;27;20489;-54
2023/07/20 12:30:44;;;;;;;0.50;0.50;;;25.30;84.70;;;;;;5153755;27;20033;-48
2023/07/20 12:33:11;;;;;;;1.15;0.50;;;24.40;84.70;;;;;;5154033;27;20034;-50
2023/07/20 12:35:37;;;;;;;1.48;0.77;;;;;;;;;;5153636;27;20023;-51
2023/07/20 12:38:03;;;;;;;0.95;0.65;;;24.10;86.00;;;;;;5153814;27;20392;-54
2023/07/20 12:40:28;;;;;;;1.10;0.63;;;24.80;88.60;;;;;;5153662;27;20025;-48
2023/07/20 12:42:54;;;;;;;1.48;0.75;;;24.60;87.20;;;;;;5153665;27;20026;-51
2023/07/20 12:45:21;;;;;;;2.08;0.85;;;;;;;;;;5153212;27;20015;-53
2023/07/20 12:47:46;;;;;;;1.38;0.80;;;26.30;88.20;;;;;;5133437;27;20023;-49
2023/07/20 12:50:12;;;;;;;0.82;0.55;;;24.70;87.70;;;;;;5132818;27;20030;-49
2023/07/20 12:52:39;;;;;;;1.63;0.65;;;26.20;86.40;;;;;;5132794;27;20098;-54
2023/07/20 12:55:06;;;;;;;2.10;0.68;;;26.70;84.10;;;;;;5131328;27;20753;-48
2023/07/20 12:57:33;;;;;;;1.50;0.60;;;27.40;81.80;;;;;;5132536;27;20027;-55